<?xml version="1.0" encoding="UTF-8" standalone="no" ?>
<gpx xmlns="http://www.topografix.com/GPX/1/1" xmlns:xsi="http://www.w3.org/2001/XMLSchema-instance" xsi:schemaLocation="http://www.topografix.com/GPX/1/1 http://www.topografix.com/GPX/1/1/gpx.xsd" version="1.1" creator="VisuGPX - https://www.visugpx.com">
  <metadata>
    <name>Pic de Montaigu - 2339 m</name>
    <desc><![CDATA[Sortie des CAF de PAU et Lourdes au Pic de Montaigu en ski de randonnée.]]></desc>
  </metadata>
  <trk>
    <name><![CDATA[2017-02-14 14:58:31]]></name>
    <trkseg>
      <trkpt lat="42.96192" lon="0.08853">
        <ele>1074.07</ele>
        <time>2017-02-14T07:31:44Z</time>
      </trkpt>
      <trkpt lat="42.96213" lon="0.08911">
        <ele>1072.13</ele>
        <time>2017-02-14T07:38:00Z</time>
      </trkpt>
      <trkpt lat="42.96232" lon="0.09037">
        <ele>1067.88</ele>
        <time>2017-02-14T07:39:20Z</time>
      </trkpt>
      <trkpt lat="42.96282" lon="0.09153">
        <ele>1063.17</ele>
        <time>2017-02-14T07:40:42Z</time>
      </trkpt>
      <trkpt lat="42.96357" lon="0.0924">
        <ele>1061.22</ele>
        <time>2017-02-14T07:42:06Z</time>
      </trkpt>
      <trkpt lat="42.96419" lon="0.09343">
        <ele>1059.21</ele>
        <time>2017-02-14T07:43:23Z</time>
      </trkpt>
      <trkpt lat="42.96499" lon="0.09413">
        <ele>1059.71</ele>
        <time>2017-02-14T07:44:42Z</time>
      </trkpt>
      <trkpt lat="42.96573" lon="0.094">
        <ele>1062.55</ele>
        <time>2017-02-14T07:51:55Z</time>
      </trkpt>
      <trkpt lat="42.96651" lon="0.09417">
        <ele>1073.53</ele>
        <time>2017-02-14T07:53:43Z</time>
      </trkpt>
      <trkpt lat="42.96703" lon="0.09474">
        <ele>1081.49</ele>
        <time>2017-02-14T07:57:00Z</time>
      </trkpt>
      <trkpt lat="42.96792" lon="0.09531">
        <ele>1101.38</ele>
        <time>2017-02-14T07:59:13Z</time>
      </trkpt>
      <trkpt lat="42.96886" lon="0.0957">
        <ele>1120.77</ele>
        <time>2017-02-14T08:01:13Z</time>
      </trkpt>
      <trkpt lat="42.96988" lon="0.09611">
        <ele>1143</ele>
        <time>2017-02-14T08:03:21Z</time>
      </trkpt>
      <trkpt lat="42.97074" lon="0.09663">
        <ele>1164.06</ele>
        <time>2017-02-14T08:05:24Z</time>
      </trkpt>
      <trkpt lat="42.97173" lon="0.09622">
        <ele>1186.65</ele>
        <time>2017-02-14T08:07:36Z</time>
      </trkpt>
      <trkpt lat="42.97097" lon="0.09569">
        <ele>1208.11</ele>
        <time>2017-02-14T08:10:14Z</time>
      </trkpt>
      <trkpt lat="42.97062" lon="0.09441">
        <ele>1228.82</ele>
        <time>2017-02-14T08:17:06Z</time>
      </trkpt>
      <trkpt lat="42.97015" lon="0.09303">
        <ele>1255.55</ele>
        <time>2017-02-14T08:19:57Z</time>
      </trkpt>
      <trkpt lat="42.96969" lon="0.09141">
        <ele>1282.71</ele>
        <time>2017-02-14T08:22:59Z</time>
      </trkpt>
      <trkpt lat="42.96944" lon="0.08966">
        <ele>1310.21</ele>
        <time>2017-02-14T08:25:53Z</time>
      </trkpt>
      <trkpt lat="42.96903" lon="0.08816">
        <ele>1335.09</ele>
        <time>2017-02-14T08:28:33Z</time>
      </trkpt>
      <trkpt lat="42.96883" lon="0.08657">
        <ele>1362.29</ele>
        <time>2017-02-14T08:31:14Z</time>
      </trkpt>
      <trkpt lat="42.96977" lon="0.08732">
        <ele>1386.1</ele>
        <time>2017-02-14T08:33:53Z</time>
      </trkpt>
      <trkpt lat="42.9703" lon="0.08705">
        <ele>1413.49</ele>
        <time>2017-02-14T08:37:44Z</time>
      </trkpt>
      <trkpt lat="42.97086" lon="0.08659">
        <ele>1440.57</ele>
        <time>2017-02-14T08:41:03Z</time>
      </trkpt>
      <trkpt lat="42.97093" lon="0.08564">
        <ele>1468.36</ele>
        <time>2017-02-14T08:44:34Z</time>
      </trkpt>
      <trkpt lat="42.97095" lon="0.08532">
        <ele>1490.47</ele>
        <time>2017-02-14T08:48:46Z</time>
      </trkpt>
      <trkpt lat="42.97154" lon="0.08503">
        <ele>1507.05</ele>
        <time>2017-02-14T09:11:23Z</time>
      </trkpt>
      <trkpt lat="42.97206" lon="0.08403">
        <ele>1518.31</ele>
        <time>2017-02-14T09:13:32Z</time>
      </trkpt>
      <trkpt lat="42.9723" lon="0.08289">
        <ele>1532.06</ele>
        <time>2017-02-14T09:15:32Z</time>
      </trkpt>
      <trkpt lat="42.97289" lon="0.08204">
        <ele>1550.75</ele>
        <time>2017-02-14T09:17:43Z</time>
      </trkpt>
      <trkpt lat="42.97311" lon="0.08094">
        <ele>1567.88</ele>
        <time>2017-02-14T09:19:52Z</time>
      </trkpt>
      <trkpt lat="42.9731" lon="0.08004">
        <ele>1588.57</ele>
        <time>2017-02-14T09:22:32Z</time>
      </trkpt>
      <trkpt lat="42.97322" lon="0.07914">
        <ele>1612.3</ele>
        <time>2017-02-14T09:25:20Z</time>
      </trkpt>
      <trkpt lat="42.97344" lon="0.07867">
        <ele>1633.28</ele>
        <time>2017-02-14T09:28:05Z</time>
      </trkpt>
      <trkpt lat="42.97366" lon="0.07834">
        <ele>1654.78</ele>
        <time>2017-02-14T09:31:15Z</time>
      </trkpt>
      <trkpt lat="42.97402" lon="0.07831">
        <ele>1674.65</ele>
        <time>2017-02-14T09:34:28Z</time>
      </trkpt>
      <trkpt lat="42.9744" lon="0.07833">
        <ele>1700.2</ele>
        <time>2017-02-14T09:38:48Z</time>
      </trkpt>
      <trkpt lat="42.9749" lon="0.07824">
        <ele>1724.11</ele>
        <time>2017-02-14T09:41:52Z</time>
      </trkpt>
      <trkpt lat="42.97538" lon="0.07799">
        <ele>1747.5</ele>
        <time>2017-02-14T09:44:34Z</time>
      </trkpt>
      <trkpt lat="42.97576" lon="0.07813">
        <ele>1770.28</ele>
        <time>2017-02-14T09:47:53Z</time>
      </trkpt>
      <trkpt lat="42.97597" lon="0.07787">
        <ele>1792.28</ele>
        <time>2017-02-14T09:52:19Z</time>
      </trkpt>
      <trkpt lat="42.97598" lon="0.07737">
        <ele>1806.08</ele>
        <time>2017-02-14T09:58:40Z</time>
      </trkpt>
      <trkpt lat="42.97619" lon="0.07685">
        <ele>1826.95</ele>
        <time>2017-02-14T10:02:45Z</time>
      </trkpt>
      <trkpt lat="42.97647" lon="0.07685">
        <ele>1847.74</ele>
        <time>2017-02-14T10:05:52Z</time>
      </trkpt>
      <trkpt lat="42.97669" lon="0.07618">
        <ele>1851.35</ele>
        <time>2017-02-14T10:24:11Z</time>
      </trkpt>
      <trkpt lat="42.97664" lon="0.07612">
        <ele>1855.33</ele>
        <time>2017-02-14T10:26:13Z</time>
      </trkpt>
      <trkpt lat="42.9764" lon="0.07541">
        <ele>1836.2</ele>
        <time>2017-02-14T10:26:50Z</time>
      </trkpt>
      <trkpt lat="42.97636" lon="0.07445">
        <ele>1833.12</ele>
        <time>2017-02-14T10:28:56Z</time>
      </trkpt>
      <trkpt lat="42.97626" lon="0.07365">
        <ele>1848.04</ele>
        <time>2017-02-14T10:31:03Z</time>
      </trkpt>
      <trkpt lat="42.97629" lon="0.07296">
        <ele>1869.9</ele>
        <time>2017-02-14T10:33:44Z</time>
      </trkpt>
      <trkpt lat="42.97651" lon="0.07228">
        <ele>1888.26</ele>
        <time>2017-02-14T10:36:33Z</time>
      </trkpt>
      <trkpt lat="42.9768" lon="0.07183">
        <ele>1908.43</ele>
        <time>2017-02-14T10:40:20Z</time>
      </trkpt>
      <trkpt lat="42.97696" lon="0.07127">
        <ele>1932.48</ele>
        <time>2017-02-14T10:43:46Z</time>
      </trkpt>
      <trkpt lat="42.97712" lon="0.07062">
        <ele>1955.33</ele>
        <time>2017-02-14T10:49:11Z</time>
      </trkpt>
      <trkpt lat="42.97764" lon="0.07049">
        <ele>1978.73</ele>
        <time>2017-02-14T10:52:11Z</time>
      </trkpt>
      <trkpt lat="42.97781" lon="0.06976">
        <ele>2005.13</ele>
        <time>2017-02-14T10:55:46Z</time>
      </trkpt>
      <trkpt lat="42.97819" lon="0.0696">
        <ele>2029.13</ele>
        <time>2017-02-14T10:58:37Z</time>
      </trkpt>
      <trkpt lat="42.97841" lon="0.06926">
        <ele>2047.06</ele>
        <time>2017-02-14T11:01:25Z</time>
      </trkpt>
      <trkpt lat="42.97869" lon="0.06883">
        <ele>2069.28</ele>
        <time>2017-02-14T11:06:59Z</time>
      </trkpt>
      <trkpt lat="42.97898" lon="0.0685">
        <ele>2095.51</ele>
        <time>2017-02-14T11:10:54Z</time>
      </trkpt>
      <trkpt lat="42.97931" lon="0.06824">
        <ele>2122.38</ele>
        <time>2017-02-14T11:16:10Z</time>
      </trkpt>
      <trkpt lat="42.97962" lon="0.06781">
        <ele>2147.82</ele>
        <time>2017-02-14T11:22:19Z</time>
      </trkpt>
      <trkpt lat="42.9803" lon="0.06829">
        <ele>2177.74</ele>
        <time>2017-02-14T11:25:17Z</time>
      </trkpt>
      <trkpt lat="42.98072" lon="0.06801">
        <ele>2204.09</ele>
        <time>2017-02-14T11:28:50Z</time>
      </trkpt>
      <trkpt lat="42.98103" lon="0.06748">
        <ele>2226.55</ele>
        <time>2017-02-14T11:34:11Z</time>
      </trkpt>
      <trkpt lat="42.98129" lon="0.06767">
        <ele>2246.13</ele>
        <time>2017-02-14T11:37:29Z</time>
      </trkpt>
      <trkpt lat="42.98164" lon="0.06762">
        <ele>2272.3</ele>
        <time>2017-02-14T11:41:35Z</time>
      </trkpt>
      <trkpt lat="42.98173" lon="0.06745">
        <ele>2280.95</ele>
        <time>2017-02-14T12:28:46Z</time>
      </trkpt>
      <trkpt lat="42.98177" lon="0.06746">
        <ele>2278.68</ele>
        <time>2017-02-14T12:43:57Z</time>
      </trkpt>
      <trkpt lat="42.98176" lon="0.06744">
        <ele>2279.54</ele>
        <time>2017-02-14T12:49:01Z</time>
      </trkpt>
      <trkpt lat="42.97589" lon="0.06898">
        <ele>1946.87</ele>
        <time>2017-02-14T13:03:29Z</time>
      </trkpt>
      <trkpt lat="42.97552" lon="0.06808">
        <ele>1938.27</ele>
        <time>2017-02-14T13:04:47Z</time>
      </trkpt>
      <trkpt lat="42.9745" lon="0.068">
        <ele>1924.02</ele>
        <time>2017-02-14T13:05:05Z</time>
      </trkpt>
      <trkpt lat="42.97373" lon="0.06772">
        <ele>1908.58</ele>
        <time>2017-02-14T13:06:14Z</time>
      </trkpt>
      <trkpt lat="42.97294" lon="0.06736">
        <ele>1872.52</ele>
        <time>2017-02-14T13:06:32Z</time>
      </trkpt>
      <trkpt lat="42.97231" lon="0.06706">
        <ele>1850.18</ele>
        <time>2017-02-14T13:08:43Z</time>
      </trkpt>
      <trkpt lat="42.97149" lon="0.06699">
        <ele>1818.87</ele>
        <time>2017-02-14T13:09:00Z</time>
      </trkpt>
      <trkpt lat="42.97064" lon="0.06668">
        <ele>1780.42</ele>
        <time>2017-02-14T13:09:18Z</time>
      </trkpt>
      <trkpt lat="42.97009" lon="0.06628">
        <ele>1748.22</ele>
        <time>2017-02-14T13:09:33Z</time>
      </trkpt>
      <trkpt lat="42.96968" lon="0.06633">
        <ele>1730</ele>
        <time>2017-02-14T13:12:49Z</time>
      </trkpt>
      <trkpt lat="42.96897" lon="0.06657">
        <ele>1710.1</ele>
        <time>2017-02-14T13:13:29Z</time>
      </trkpt>
      <trkpt lat="42.96874" lon="0.06576">
        <ele>1669.3</ele>
        <time>2017-02-14T13:13:57Z</time>
      </trkpt>
      <trkpt lat="42.96861" lon="0.06489">
        <ele>1644.33</ele>
        <time>2017-02-14T13:14:37Z</time>
      </trkpt>
      <trkpt lat="42.96792" lon="0.06433">
        <ele>1633</ele>
        <time>2017-02-14T13:14:50Z</time>
      </trkpt>
      <trkpt lat="42.96702" lon="0.06419">
        <ele>1615.54</ele>
        <time>2017-02-14T13:15:58Z</time>
      </trkpt>
      <trkpt lat="42.96634" lon="0.06334">
        <ele>1602.79</ele>
        <time>2017-02-14T13:16:13Z</time>
      </trkpt>
      <trkpt lat="42.96579" lon="0.06237">
        <ele>1587.99</ele>
        <time>2017-02-14T13:16:28Z</time>
      </trkpt>
      <trkpt lat="42.96511" lon="0.06154">
        <ele>1567.65</ele>
        <time>2017-02-14T13:16:45Z</time>
      </trkpt>
      <trkpt lat="42.96426" lon="0.06103">
        <ele>1536.09</ele>
        <time>2017-02-14T13:17:13Z</time>
      </trkpt>
      <trkpt lat="42.96358" lon="0.06006">
        <ele>1517.66</ele>
        <time>2017-02-14T13:18:26Z</time>
      </trkpt>
      <trkpt lat="42.96291" lon="0.05919">
        <ele>1496.92</ele>
        <time>2017-02-14T13:18:42Z</time>
      </trkpt>
      <trkpt lat="42.96231" lon="0.05835">
        <ele>1473.4</ele>
        <time>2017-02-14T13:19:38Z</time>
      </trkpt>
      <trkpt lat="42.96182" lon="0.05777">
        <ele>1449.76</ele>
        <time>2017-02-14T13:20:01Z</time>
      </trkpt>
      <trkpt lat="42.96146" lon="0.05775">
        <ele>1429.27</ele>
        <time>2017-02-14T13:21:18Z</time>
      </trkpt>
      <trkpt lat="42.96103" lon="0.05786">
        <ele>1405.94</ele>
        <time>2017-02-14T13:21:37Z</time>
      </trkpt>
      <trkpt lat="42.9607" lon="0.05792">
        <ele>1380.59</ele>
        <time>2017-02-14T13:21:57Z</time>
      </trkpt>
      <trkpt lat="42.96023" lon="0.0583">
        <ele>1348.99</ele>
        <time>2017-02-14T13:22:47Z</time>
      </trkpt>
      <trkpt lat="42.95957" lon="0.05767">
        <ele>1303.81</ele>
        <time>2017-02-14T13:25:14Z</time>
      </trkpt>
      <trkpt lat="42.95917" lon="0.05804">
        <ele>1299.49</ele>
        <time>2017-02-14T13:30:30Z</time>
      </trkpt>
      <trkpt lat="42.95884" lon="0.059">
        <ele>1295.57</ele>
        <time>2017-02-14T13:31:13Z</time>
      </trkpt>
      <trkpt lat="42.95887" lon="0.06008">
        <ele>1298.68</ele>
        <time>2017-02-14T13:34:11Z</time>
      </trkpt>
      <trkpt lat="42.95925" lon="0.06118">
        <ele>1287.66</ele>
        <time>2017-02-14T13:36:00Z</time>
      </trkpt>
      <trkpt lat="42.95945" lon="0.06254">
        <ele>1268.02</ele>
        <time>2017-02-14T13:36:46Z</time>
      </trkpt>
      <trkpt lat="42.96003" lon="0.0644">
        <ele>1255.72</ele>
        <time>2017-02-14T13:37:47Z</time>
      </trkpt>
      <trkpt lat="42.96046" lon="0.06595">
        <ele>1240.08</ele>
        <time>2017-02-14T13:38:38Z</time>
      </trkpt>
      <trkpt lat="42.9605" lon="0.06794">
        <ele>1228.59</ele>
        <time>2017-02-14T13:39:18Z</time>
      </trkpt>
      <trkpt lat="42.96042" lon="0.06945">
        <ele>1220.73</ele>
        <time>2017-02-14T13:40:24Z</time>
      </trkpt>
      <trkpt lat="42.96063" lon="0.07084">
        <ele>1213.8</ele>
        <time>2017-02-14T13:40:51Z</time>
      </trkpt>
      <trkpt lat="42.96091" lon="0.07225">
        <ele>1210.34</ele>
        <time>2017-02-14T13:41:25Z</time>
      </trkpt>
      <trkpt lat="42.96087" lon="0.07454">
        <ele>1184.56</ele>
        <time>2017-02-14T13:43:18Z</time>
      </trkpt>
      <trkpt lat="42.96059" lon="0.07616">
        <ele>1171.34</ele>
        <time>2017-02-14T13:44:37Z</time>
      </trkpt>
      <trkpt lat="42.96108" lon="0.07768">
        <ele>1160.3</ele>
        <time>2017-02-14T13:45:12Z</time>
      </trkpt>
      <trkpt lat="42.96091" lon="0.07916">
        <ele>1150.9</ele>
        <time>2017-02-14T13:45:44Z</time>
      </trkpt>
      <trkpt lat="42.96088" lon="0.08055">
        <ele>1137.57</ele>
        <time>2017-02-14T13:47:10Z</time>
      </trkpt>
      <trkpt lat="42.96083" lon="0.0819">
        <ele>1110.25</ele>
        <time>2017-02-14T13:48:50Z</time>
      </trkpt>
      <trkpt lat="42.96079" lon="0.083">
        <ele>1095.89</ele>
        <time>2017-02-14T13:50:50Z</time>
      </trkpt>
      <trkpt lat="42.96097" lon="0.08426">
        <ele>1089.47</ele>
        <time>2017-02-14T13:52:21Z</time>
      </trkpt>
      <trkpt lat="42.96085" lon="0.08538">
        <ele>1074.67</ele>
        <time>2017-02-14T13:54:43Z</time>
      </trkpt>
      <trkpt lat="42.96102" lon="0.08656">
        <ele>1069.26</ele>
        <time>2017-02-14T13:55:19Z</time>
      </trkpt>
      <trkpt lat="42.96141" lon="0.08786">
        <ele>1064.39</ele>
        <time>2017-02-14T13:55:59Z</time>
      </trkpt>
      <trkpt lat="42.96197" lon="0.08864">
        <ele>1052.76</ele>
        <time>2017-02-14T13:58:29Z</time>
      </trkpt>
    </trkseg>
  </trk>
</gpx>